Time;durP1;ratioP1;P1;durP2;ratioP2;P2;SDS_P1;SDS_P2;PMS_P1;PMS_P2;Temp;Humidity;BMP_temperature;BMP_pressure;BME280_temperature;BME280_humidity;BME280_pressure;Samples;Min_cycle;Max_cycle;Signal;HPM_P1;HPM_P2
2022/03/26 00:02:00;;;;;;;3.77;3.33;;;17.70;58.90;;;;;;5245456;28;20216;-66
2022/03/26 00:04:52;;;;;;;4.57;3.67;;;17.70;58.90;;;;;;5245582;28;20688;-66
2022/03/26 00:07:45;;;;;;;4.03;3.60;;;17.70;58.90;;;;;;5242063;28;20269;-66
2022/03/26 00:10:37;;;;;;;3.57;3.27;;;17.70;58.90;;;;;;5247130;28;20203;-66
2022/03/26 00:13:29;;;;;;;3.63;3.30;;;17.70;58.90;;;;;;5245202;28;20230;-66
2022/03/26 00:16:23;;;;;;;4.00;3.40;;;17.70;58.90;;;;;;5237372;28;20192;-67
2022/03/26 00:19:15;;;;;;;3.87;3.30;;;17.70;58.90;;;;;;5246526;28;20692;-66
2022/03/26 00:22:07;;;;;;;5.17;3.53;;;17.70;58.90;;;;;;5226225;28;20197;-66
2022/03/26 00:25:00;;;;;;;3.20;2.90;;;17.70;58.90;;;;;;5242106;28;20201;-66
2022/03/26 00:27:52;;;;;;;4.80;3.57;;;17.70;58.90;;;;;;5246368;28;20606;-66
2022/03/26 00:30:44;;;;;;;4.37;3.40;;;17.70;58.90;;;;;;5246602;28;20568;-66
2022/03/26 00:33:40;;;;;;;3.63;3.33;;;17.70;58.90;;;;;;5246464;28;20226;-66
2022/03/26 00:36:32;;;;;;;4.03;2.73;;;17.70;58.90;;;;;;5246359;28;20185;-66
2022/03/26 00:39:24;;;;;;;4.43;3.17;;;17.70;58.90;;;;;;5246396;28;20703;-66
2022/03/26 00:42:16;;;;;;;4.17;3.20;;;17.70;58.90;;;;;;5245860;28;20192;-66
2022/03/26 00:45:10;;;;;;;3.87;3.47;;;17.70;58.90;;;;;;5246341;28;20197;-66
2022/03/26 00:48:02;;;;;;;3.83;3.43;;;17.70;58.90;;;;;;5246766;28;20216;-66
2022/03/26 00:50:56;;;;;;;3.90;3.30;;;17.60;58.80;;;;;;5246090;28;20578;-66
2022/03/26 00:53:48;;;;;;;3.50;3.20;;;17.70;58.90;;;;;;5245983;28;20211;-66
2022/03/26 00:56:42;;;;;;;4.33;3.70;;;17.70;58.80;;;;;;5246139;28;20197;-66
2022/03/26 00:59:34;;;;;;;3.97;3.37;;;17.70;58.80;;;;;;5246159;28;20199;-66
2022/03/26 01:02:26;;;;;;;4.13;3.50;;;17.70;58.80;;;;;;5245745;28;20384;-66
2022/03/26 01:05:18;;;;;;;3.43;3.13;;;17.70;58.90;;;;;;5247101;28;20250;-66
2022/03/26 01:08:12;;;;;;;3.40;3.10;;;17.70;58.80;;;;;;5246384;28;20641;-66
2022/03/26 01:11:04;;;;;;;4.17;3.43;;;17.70;59.40;;;;;;5246337;28;20259;-66
2022/03/26 01:13:57;;;;;;;4.40;3.43;;;17.70;58.80;;;;;;5246324;28;20211;-66
2022/03/26 01:16:49;;;;;;;4.33;3.40;;;17.70;58.80;;;;;;5245427;28;20212;-66
2022/03/26 01:19:41;;;;;;;4.50;3.30;;;17.70;58.80;;;;;;5244441;28;20208;-66
2022/03/26 01:22:33;;;;;;;4.40;3.40;;;17.70;58.80;;;;;;5246070;28;20202;-66
2022/03/26 01:25:27;;;;;;;3.50;3.20;;;17.60;58.80;;;;;;5246581;28;20572;-66
2022/03/26 01:28:19;;;;;;;4.47;3.10;;;17.70;58.80;;;;;;5245903;28;20212;-66
2022/03/26 01:31:12;;;;;;;3.60;3.07;;;17.60;58.70;;;;;;5246405;28;20193;-66
2022/03/26 01:34:04;;;;;;;3.43;3.03;;;17.70;58.80;;;;;;5246273;28;20790;-66
2022/03/26 01:36:56;;;;;;;4.77;3.70;;;17.70;58.80;;;;;;5246132;28;20687;-66
2022/03/26 01:39:48;;;;;;;3.43;3.10;;;17.70;58.80;;;;;;5246144;28;20196;-66
2022/03/26 01:42:42;;;;;;;4.33;3.43;;;17.70;58.80;;;;;;5245941;28;20196;-64
2022/03/26 01:45:34;;;;;;;3.87;3.47;;;17.70;58.80;;;;;;5246172;28;20212;-66
2022/03/26 01:48:26;;;;;;;3.77;3.40;;;17.70;58.80;;;;;;5242860;28;20240;-66
2022/03/26 01:51:18;;;;;;;3.93;3.20;;;17.70;58.80;;;;;;5242186;28;20561;-66
2022/03/26 01:54:12;;;;;;;4.07;3.30;;;17.70;58.80;;;;;;5245939;28;20199;-66
2022/03/26 01:57:05;;;;;;;3.97;3.30;;;17.70;58.80;;;;;;5245510;28;20699;-66
2022/03/26 01:59:59;;;;;;;3.60;3.30;;;17.70;59.30;;;;;;5246594;28;20219;-66
2022/03/26 02:02:51;;;;;;;4.00;3.60;;;17.70;58.70;;;;;;5241473;28;20232;-66
2022/03/26 02:05:43;;;;;;;4.07;3.40;;;17.70;58.70;;;;;;5206770;28;20296;-65
2022/03/26 02:08:36;;;;;;;4.40;3.43;;;17.70;58.80;;;;;;5204638;28;20228;-66
2022/03/26 02:11:32;;;;;;;4.63;3.80;;;17.70;58.70;;;;;;5204369;28;20194;-66
2022/03/26 02:14:24;;;;;;;3.77;3.23;;;17.60;58.60;;;;;;5216635;28;20201;-66
2022/03/26 02:17:18;;;;;;;3.90;3.43;;;17.60;58.70;;;;;;5229179;28;20213;-66
2022/03/26 02:20:14;;;;;;;4.13;3.37;;;17.70;58.70;;;;;;5237445;28;20201;-66
2022/03/26 02:23:06;;;;;;;3.43;3.13;;;17.60;58.60;;;;;;5229251;28;20201;-67
2022/03/26 02:25:58;;;;;;;3.60;3.20;;;17.70;58.60;;;;;;5209447;28;20301;-67
2022/03/26 02:28:50;;;;;;;5.43;3.90;;;17.70;58.60;;;;;;5208152;28;20218;-67
2022/03/26 02:31:42;;;;;;;3.80;3.40;;;17.60;58.60;;;;;;5206935;28;20615;-64
2022/03/26 02:34:35;;;;;;;3.83;3.43;;;17.60;58.60;;;;;;5207292;28;20204;-66
2022/03/26 02:37:29;;;;;;;3.37;3.07;;;17.70;58.70;;;;;;5208253;28;20700;-66
2022/03/26 02:40:21;;;;;;;4.20;3.50;;;17.60;58.50;;;;;;5207012;28;20220;-66
2022/03/26 02:43:13;;;;;;;3.70;3.40;;;17.70;58.60;;;;;;5207896;28;20202;-66
2022/03/26 02:46:06;;;;;;;3.93;3.30;;;17.60;58.50;;;;;;5208926;28;20703;-66
2022/03/26 02:48:58;;;;;;;3.90;3.47;;;17.70;58.60;;;;;;5228524;28;20193;-67
2022/03/26 02:51:50;;;;;;;3.60;3.23;;;17.70;58.60;;;;;;5247590;28;20197;-66
2022/03/26 02:54:43;;;;;;;4.10;3.53;;;17.60;58.60;;;;;;5230419;28;20195;-64
2022/03/26 02:57:35;;;;;;;5.13;3.63;;;17.70;58.60;;;;;;5237671;28;20636;-66
2022/03/26 03:00:28;;;;;;;4.57;3.57;;;17.60;58.50;;;;;;5249110;28;20667;-66
2022/03/26 03:03:20;;;;;;;4.03;3.63;;;17.60;58.50;;;;;;5248911;28;20668;-66
2022/03/26 03:06:12;;;;;;;4.10;3.70;;;17.60;58.50;;;;;;5248868;28;20231;-66
2022/03/26 03:09:05;;;;;;;4.37;3.27;;;17.70;58.60;;;;;;5248714;28;20677;-66
2022/03/26 03:11:59;;;;;;;4.00;3.60;;;17.60;58.50;;;;;;5248649;28;20192;-66
2022/03/26 03:14:51;;;;;;;4.57;3.60;;;17.60;58.50;;;;;;5232956;28;20546;-66
2022/03/26 03:17:43;;;;;;;3.90;3.43;;;17.70;58.60;;;;;;5229417;28;20253;-63
2022/03/26 03:20:35;;;;;;;3.93;3.53;;;17.60;58.50;;;;;;5248682;28;20717;-66
2022/03/26 03:23:28;;;;;;;4.50;3.57;;;17.60;58.50;;;;;;5248323;28;20570;-66
2022/03/26 03:26:20;;;;;;;4.27;3.87;;;17.70;58.60;;;;;;5248644;28;20695;-66
2022/03/26 03:29:13;;;;;;;4.10;3.63;;;17.60;58.50;;;;;;5248560;28;20193;-66
2022/03/26 03:32:06;;;;;;;4.00;3.60;;;17.60;58.50;;;;;;5248085;28;20203;-66
2022/03/26 03:34:58;;;;;;;4.77;3.70;;;17.70;58.50;;;;;;5247940;28;20196;-66
2022/03/26 03:37:51;;;;;;;4.10;3.70;;;17.60;58.40;;;;;;5248151;28;20682;-66
2022/03/26 03:40:43;;;;;;;3.77;3.37;;;17.70;58.50;;;;;;5247442;28;20678;-65
2022/03/26 03:43:35;;;;;;;4.77;3.87;;;17.60;58.40;;;;;;5247083;28;20188;-66
2022/03/26 03:46:28;;;;;;;4.37;3.93;;;17.60;58.40;;;;;;5247909;28;20215;-66
2022/03/26 03:49:20;;;;;;;3.53;3.23;;;17.60;58.40;;;;;;5248152;28;20579;-66
2022/03/26 03:52:12;;;;;;;4.57;4.00;;;17.60;58.40;;;;;;5227681;28;20201;-66
2022/03/26 03:55:06;;;;;;;3.67;3.37;;;17.60;58.40;;;;;;5230139;28;20682;-66
2022/03/26 03:57:58;;;;;;;4.37;3.70;;;17.60;58.40;;;;;;5270257;22;20238;-64
2022/03/26 04:00:51;;;;;;;4.03;3.63;;;17.60;58.40;;;;;;5246160;28;20204;-64
2022/03/26 04:03:44;;;;;;;3.97;3.43;;;17.60;58.40;;;;;;5247255;28;20193;-63
2022/03/26 04:06:36;;;;;;;3.77;3.27;;;17.60;58.30;;;;;;5247266;28;20223;-63
2022/03/26 04:09:28;;;;;;;3.73;3.37;;;17.60;58.30;;;;;;5226918;28;20201;-66
2022/03/26 04:12:20;;;;;;;4.13;3.73;;;17.60;58.30;;;;;;5206602;28;20200;-65
2022/03/26 04:15:14;;;;;;;4.40;3.87;;;17.60;58.30;;;;;;5205835;28;20657;-65
2022/03/26 04:18:06;;;;;;;5.10;4.17;;;17.60;58.30;;;;;;5213227;28;20220;-65
2022/03/26 04:21:00;;;;;;;4.00;3.60;;;17.60;58.40;;;;;;5226020;28;20193;-65
2022/03/26 04:23:52;;;;;;;5.13;3.90;;;17.60;58.40;;;;;;5226116;28;20733;-65
2022/03/26 04:26:44;;;;;;;5.00;4.10;;;17.60;58.30;;;;;;5226039;28;20216;-64
2022/03/26 04:29:36;;;;;;;4.27;3.87;;;17.60;58.30;;;;;;5224485;28;20243;-64
2022/03/26 04:32:30;;;;;;;4.13;3.73;;;17.60;58.30;;;;;;5205219;28;20249;-64
2022/03/26 04:35:22;;;;;;;4.93;3.67;;;17.60;58.30;;;;;;5226467;28;20198;-64
2022/03/26 04:38:15;;;;;;;3.93;3.43;;;17.60;58.30;;;;;;5225860;28;20211;-64
2022/03/26 04:41:08;;;;;;;3.50;3.20;;;17.60;58.30;;;;;;5226567;28;20497;-64
2022/03/26 04:44:00;;;;;;;4.10;3.47;;;17.60;58.30;;;;;;5226210;28;20316;-65
2022/03/26 04:46:52;;;;;;;4.17;3.77;;;17.60;58.30;;;;;;5225777;28;20731;-64
2022/03/26 04:49:44;;;;;;;4.00;3.60;;;17.60;58.30;;;;;;5225376;28;20193;-64
2022/03/26 04:52:36;;;;;;;4.33;3.93;;;17.60;58.30;;;;;;5226584;28;20233;-65
2022/03/26 04:55:30;;;;;;;5.03;3.40;;;17.60;58.30;;;;;;5219700;28;20343;-64
2022/03/26 04:58:22;;;;;;;4.83;3.90;;;17.60;58.30;;;;;;5225082;28;20233;-64
2022/03/26 05:01:14;;;;;;;3.83;3.50;;;17.60;58.20;;;;;;5224607;28;20580;-64
2022/03/26 05:04:06;;;;;;;5.53;4.10;;;17.60;58.30;;;;;;5223716;28;20197;-64
2022/03/26 05:06:58;;;;;;;5.97;4.60;;;17.60;58.30;;;;;;5224657;28;20209;-64
2022/03/26 05:09:50;;;;;;;4.67;4.17;;;17.60;58.30;;;;;;5224830;28;20197;-64
2022/03/26 05:12:44;;;;;;;4.80;4.30;;;17.60;58.30;;;;;;5224508;28;20275;-65
2022/03/26 05:15:37;;;;;;;4.60;4.00;;;17.60;58.30;;;;;;5224879;28;20193;-64
2022/03/26 05:18:29;;;;;;;5.37;4.07;;;17.60;58.30;;;;;;5224770;28;20691;-65
2022/03/26 05:21:21;;;;;;;5.13;3.87;;;17.60;58.30;;;;;;5223880;28;20197;-64
2022/03/26 05:24:13;;;;;;;4.97;4.43;;;17.60;58.30;;;;;;5225152;28;20362;-65
2022/03/26 05:27:06;;;;;;;4.70;4.20;;;17.60;58.20;;;;;;5226570;28;20213;-65
2022/03/26 05:30:00;;;;;;;4.93;4.43;;;17.60;58.20;;;;;;5226103;28;20193;-64
2022/03/26 05:32:52;;;;;;;4.97;4.47;;;17.60;58.20;;;;;;5225365;28;20197;-65
2022/03/26 05:35:44;;;;;;;5.80;4.43;;;17.60;58.30;;;;;;5224908;28;20283;-65
2022/03/26 05:38:36;;;;;;;5.47;4.17;;;17.60;58.30;;;;;;5225373;28;20209;-65
2022/03/26 05:41:29;;;;;;;5.97;4.30;;;17.60;58.20;;;;;;5224628;28;20691;-65
2022/03/26 05:44:21;;;;;;;5.17;4.20;;;17.70;58.20;;;;;;5225504;28;20201;-65
2022/03/26 05:47:14;;;;;;;5.37;4.67;;;17.70;58.20;;;;;;5224509;28;20220;-65
2022/03/26 05:50:09;;;;;;;5.53;4.27;;;17.60;58.10;;;;;;5226763;28;20504;-65
2022/03/26 05:53:01;;;;;;;6.73;4.30;;;17.70;58.20;;;;;;5228602;28;20664;-65
2022/03/26 05:55:53;;;;;;;4.67;4.00;;;17.70;58.10;;;;;;5228785;28;20193;-65
2022/03/26 05:58:45;;;;;;;4.90;4.40;;;17.60;58.10;;;;;;5229084;28;20720;-65
2022/03/26 06:01:38;;;;;;;5.30;4.60;;;17.70;58.20;;;;;;5229416;28;20215;-65
2022/03/26 06:04:31;;;;;;;5.00;4.50;;;17.70;58.20;;;;;;5213987;28;20301;-65
2022/03/26 06:07:23;;;;;;;4.97;4.37;;;17.70;58.10;;;;;;5188545;28;20226;-65
2022/03/26 06:10:15;;;;;;;4.43;4.00;;;17.70;58.10;;;;;;5188344;28;20220;-65
2022/03/26 06:13:08;;;;;;;4.63;4.13;;;17.70;58.10;;;;;;5187527;28;20190;-65
2022/03/26 06:16:00;;;;;;;5.27;4.77;;;17.70;58.10;;;;;;5187042;28;20202;-65
2022/03/26 06:18:52;;;;;;;5.47;4.57;;;17.70;58.10;;;;;;5187339;28;20214;-65
2022/03/26 06:21:45;;;;;;;5.10;4.37;;;17.70;58.10;;;;;;5187950;28;20194;-64
2022/03/26 06:24:39;;;;;;;5.07;4.57;;;17.70;58.10;;;;;;5187508;28;20201;-64
2022/03/26 06:27:31;;;;;;;5.00;4.47;;;17.70;58.10;;;;;;5187793;28;20265;-64
2022/03/26 06:30:23;;;;;;;5.10;4.53;;;17.80;58.10;;;;;;5187210;28;20202;-65
2022/03/26 06:33:16;;;;;;;4.90;4.40;;;17.70;58.10;;;;;;5197806;28;20205;-65
2022/03/26 06:36:08;;;;;;;7.33;5.20;;;17.70;58.10;;;;;;5219953;28;20240;-65
2022/03/26 06:39:01;;;;;;;5.80;4.53;;;17.70;58.10;;;;;;5187924;28;20359;-65
2022/03/26 06:41:53;;;;;;;5.40;4.60;;;17.70;58.00;;;;;;5186888;28;20207;-65
2022/03/26 06:44:46;;;;;;;5.17;4.67;;;17.70;58.10;;;;;;5187288;28;20562;-65
2022/03/26 06:47:39;;;;;;;6.50;4.60;;;17.70;58.10;;;;;;5187464;28;20756;-65
2022/03/26 06:50:31;;;;;;;6.60;4.63;;;17.70;58.10;;;;;;5206649;28;20205;-65
2022/03/26 06:53:23;;;;;;;6.53;5.03;;;17.70;58.10;;;;;;5227892;28;20204;-64
2022/03/26 06:56:17;;;;;;;5.40;4.53;;;17.70;58.20;;;;;;5227972;28;20193;-65
2022/03/26 06:59:09;;;;;;;5.93;4.77;;;17.80;58.20;;;;;;5228198;28;20591;-65
2022/03/26 07:02:01;;;;;;;5.40;4.50;;;17.70;58.20;;;;;;5227506;28;20193;-64
2022/03/26 07:04:54;;;;;;;6.37;5.00;;;17.70;58.20;;;;;;5209993;28;20201;-64
2022/03/26 07:07:46;;;;;;;5.57;4.93;;;17.70;58.20;;;;;;5207645;28;20221;-65
2022/03/26 07:10:41;;;;;;;6.03;5.03;;;17.70;58.20;;;;;;5207348;28;20272;-65
2022/03/26 07:13:34;;;;;;;4.93;4.43;;;17.70;58.20;;;;;;5208212;28;20201;-64
2022/03/26 07:16:26;;;;;;;5.33;4.83;;;17.80;58.20;;;;;;5207926;28;20190;-65
2022/03/26 07:19:18;;;;;;;7.10;5.27;;;17.70;58.20;;;;;;5208259;28;20597;-64
2022/03/26 07:22:10;;;;;;;5.60;4.60;;;17.70;58.20;;;;;;5207479;28;20216;-64
2022/03/26 07:25:04;;;;;;;5.87;4.60;;;17.70;58.20;;;;;;5207907;28;20202;-65
2022/03/26 07:27:56;;;;;;;5.23;4.73;;;17.70;58.20;;;;;;5187384;28;20229;-65
2022/03/26 07:30:49;;;;;;;5.17;4.57;;;17.70;58.20;;;;;;5186773;28;20195;-63
2022/03/26 07:33:42;;;;;;;6.30;5.07;;;17.70;58.30;;;;;;5203454;28;20197;-65
2022/03/26 07:36:34;;;;;;;5.37;4.63;;;17.70;58.20;;;;;;5223265;28;20220;-65
2022/03/26 07:39:26;;;;;;;4.80;4.23;;;17.70;58.20;;;;;;5220321;28;20252;-64
2022/03/26 07:42:18;;;;;;;4.87;4.37;;;17.70;58.30;;;;;;5185409;28;20198;-65
2022/03/26 07:45:11;;;;;;;5.57;4.33;;;17.70;58.30;;;;;;5197571;28;20723;-64
2022/03/26 07:48:05;;;;;;;5.53;4.83;;;17.80;58.30;;;;;;5207256;28;20269;-66
2022/03/26 07:50:57;;;;;;;6.30;4.87;;;17.70;58.20;;;;;;5210576;28;20190;-66
2022/03/26 07:53:49;;;;;;;5.60;5.00;;;17.70;58.30;;;;;;5225809;28;20576;-65
2022/03/26 07:56:41;;;;;;;5.93;4.77;;;17.70;58.30;;;;;;5186538;28;20274;-65
2022/03/26 07:59:33;;;;;;;5.17;4.67;;;17.70;58.30;;;;;;5218810;28;20193;-65
2022/03/26 08:02:26;;;;;;;5.63;4.93;;;17.70;58.30;;;;;;5226606;28;20207;-66
2022/03/26 08:05:20;;;;;;;4.80;4.40;;;17.70;58.40;;;;;;5227246;28;20207;-66
2022/03/26 08:08:12;;;;;;;4.70;4.23;;;17.70;58.40;;;;;;5227299;28;20206;-66
2022/03/26 08:11:04;;;;;;;4.80;4.00;;;17.70;58.40;;;;;;5226026;28;20684;-65
2022/03/26 08:13:56;;;;;;;5.10;4.17;;;17.70;58.40;;;;;;5226069;28;20197;-65
2022/03/26 08:16:49;;;;;;;5.93;4.80;;;17.70;58.40;;;;;;5226278;28;20197;-65
2022/03/26 08:19:41;;;;;;;5.93;4.37;;;17.70;58.40;;;;;;5226163;28;20192;-65
2022/03/26 08:22:35;;;;;;;4.80;4.23;;;17.70;58.50;;;;;;5224351;28;20203;-66
2022/03/26 08:28:33;;;;;;;5.90;4.87;;;17.70;58.40;;;;;;5222884;28;20223;-66
2022/03/26 08:31:29;;;;;;;13.67;9.47;;;17.70;57.70;;;;;;5213898;28;20198;-64
2022/03/26 08:34:21;;;;;;;25.50;16.10;;;17.70;56.70;;;;;;5225219;28;20192;-65
2022/03/26 08:37:13;;;;;;;24.57;16.07;;;17.70;56.10;;;;;;5226363;28;20280;-65
2022/03/26 08:40:09;;;;;;;23.67;15.37;;;17.70;55.90;;;;;;5226705;28;20197;-66
2022/03/26 08:43:01;;;;;;;27.80;17.37;;;17.60;56.50;;;;;;5224524;28;20430;-67
2022/03/26 08:45:53;;;;;;;29.53;17.87;;;17.60;56.10;;;;;;5224757;28;20203;-67
2022/03/26 08:48:45;;;;;;;27.10;17.57;;;17.60;56.00;;;;;;5216417;28;20225;-66
2022/03/26 08:51:37;;;;;;;24.37;17.73;;;17.60;56.00;;;;;;5223431;28;20580;-67
2022/03/26 08:54:30;;;;;;;24.93;16.47;;;17.60;56.30;;;;;;5205413;28;20221;-66
2022/03/26 08:57:23;;;;;;;21.70;16.20;;;17.60;55.80;;;;;;5205032;28;20229;-67
2022/03/26 09:00:17;;;;;;;24.37;17.00;;;17.50;55.60;;;;;;5205839;28;20573;-66
2022/03/26 09:03:09;;;;;;;24.50;16.17;;;17.60;55.90;;;;;;5208196;28;20192;-66
2022/03/26 09:06:02;;;;;;;23.80;16.70;;;17.50;55.40;;;;;;5225564;28;20198;-66
2022/03/26 09:08:54;;;;;;;22.53;15.73;;;17.50;55.70;;;;;;5224690;28;20217;-66
2022/03/26 09:11:46;;;;;;;25.73;15.93;;;17.50;55.60;;;;;;5224984;28;20200;-66
2022/03/26 09:14:40;;;;;;;19.40;14.37;;;17.50;55.80;;;;;;5225012;28;20192;-67
2022/03/26 09:17:32;;;;;;;21.33;15.73;;;17.50;55.90;;;;;;5224814;28;20217;-67
2022/03/26 09:20:24;;;;;;;22.07;16.03;;;17.50;55.80;;;;;;5225139;28;20208;-66
2022/03/26 09:23:16;;;;;;;19.33;14.50;;;17.50;55.80;;;;;;5223990;28;20212;-66
2022/03/26 09:26:08;;;;;;;18.27;13.90;;;17.50;55.90;;;;;;5223880;28;20201;-67
2022/03/26 09:29:01;;;;;;;19.30;14.33;;;17.40;56.10;;;;;;5223829;28;20216;-66
2022/03/26 09:31:54;;;;;;;20.47;13.57;;;17.40;56.10;;;;;;5224881;28;20193;-67
2022/03/26 09:34:48;;;;;;;21.57;14.77;;;17.40;56.20;;;;;;5204862;28;20197;-67
2022/03/26 09:37:41;;;;;;;17.60;13.13;;;17.40;56.30;;;;;;5220749;28;20212;-67
2022/03/26 09:40:34;;;;;;;18.97;12.77;;;17.50;56.40;;;;;;5225521;28;20687;-67
2022/03/26 09:43:28;;;;;;;17.23;12.43;;;17.40;56.40;;;;;;5224680;28;20198;-67
2022/03/26 09:46:20;;;;;;;17.70;12.37;;;17.40;56.40;;;;;;5223852;28;20192;-67
2022/03/26 09:49:13;;;;;;;16.43;12.30;;;17.40;56.60;;;;;;5222811;28;20216;-67
2022/03/26 09:52:06;;;;;;;15.43;11.80;;;17.40;56.70;;;;;;5203912;28;20202;-67
2022/03/26 09:54:59;;;;;;;15.90;11.37;;;17.40;56.70;;;;;;5204069;28;20201;-67
2022/03/26 09:57:52;;;;;;;13.53;10.83;;;17.50;56.90;;;;;;5232091;22;20209;-72
2022/03/26 10:00:44;;;;;;;14.37;9.90;;;17.40;56.90;;;;;;5218397;28;20658;-72
2022/03/26 10:03:39;;;;;;;13.60;9.93;;;17.40;57.00;;;;;;5218027;28;20239;-72
2022/03/26 10:06:32;;;;;;;12.70;9.30;;;17.40;57.20;;;;;;5223540;28;20193;-71
2022/03/26 10:09:33;;;;;;;12.67;9.23;;;17.40;57.30;;;;;;5202490;28;20288;-72
2022/03/26 10:12:26;;;;;;;12.63;8.67;;;17.40;57.30;;;;;;5219652;28;20251;-72
2022/03/26 10:15:18;;;;;;;10.83;7.63;;;17.50;57.50;;;;;;5224128;28;20196;-71
2022/03/26 10:18:11;;;;;;;11.07;8.47;;;17.40;57.50;;;;;;5223926;28;20562;-72
2022/03/26 10:21:03;;;;;;;9.57;7.43;;;17.50;57.50;;;;;;5221599;28;20326;-72
2022/03/26 10:23:57;;;;;;;10.33;7.70;;;17.50;57.50;;;;;;5222747;28;20197;-72
2022/03/26 10:26:49;;;;;;;11.37;8.37;;;17.50;57.60;;;;;;5223650;28;20234;-72
2022/03/26 10:29:52;;;;;;;10.90;7.77;;;17.50;57.60;;;;;;5223096;28;20343;-72
2022/03/26 10:32:47;;;;;;;9.70;7.33;;;17.50;57.70;;;;;;5222420;28;20216;-73
2022/03/26 10:35:39;;;;;;;8.97;6.80;;;17.50;57.70;;;;;;5222622;28;20197;-72
2022/03/26 10:38:32;;;;;;;11.97;6.37;;;17.50;57.70;;;;;;5220055;28;20198;-74
2022/03/26 10:41:26;;;;;;;6.90;5.97;;;17.50;57.70;;;;;;5225757;28;20228;-74
2022/03/26 10:44:23;;;;;;;7.90;6.43;;;17.50;57.80;;;;;;5226515;28;20258;-73
2022/03/26 10:47:16;;;;;;;7.53;6.03;;;17.50;57.80;;;;;;5228122;28;20270;-75
2022/03/26 10:50:09;;;;;;;7.37;5.37;;;17.50;57.70;;;;;;5227292;28;20618;-75
2022/03/26 10:53:10;;;;;;;7.83;5.83;;;17.50;57.80;;;;;;5226131;28;20228;-75
2022/03/26 10:56:03;;;;;;;7.33;5.53;;;17.50;57.80;;;;;;5224442;28;20212;-72
2022/03/26 10:58:57;;;;;;;8.30;5.50;;;17.50;57.80;;;;;;5222964;28;20201;-72
2022/03/26 11:01:49;;;;;;;5.87;4.90;;;17.50;57.80;;;;;;5222913;28;20209;-72
2022/03/26 11:04:41;;;;;;;6.27;5.00;;;17.50;57.80;;;;;;5223557;28;20331;-73
2022/03/26 11:07:36;;;;;;;7.00;5.23;;;17.50;57.80;;;;;;5222585;28;20282;-72
2022/03/26 11:10:31;;;;;;;5.90;4.57;;;17.50;57.80;;;;;;5224222;28;20638;-73
2022/03/26 11:13:25;;;;;;;5.63;4.63;;;17.50;57.80;;;;;;5225817;28;20204;-72
2022/03/26 11:16:31;;;;;;;5.87;4.50;;;17.50;57.80;;;;;;5227341;28;20197;-73
2022/03/26 11:19:34;;;;;;;5.20;4.27;;;17.50;57.80;;;;;;5225451;28;20201;-73
2022/03/26 11:22:34;;;;;;;4.47;4.00;;;17.50;57.80;;;;;;5225830;28;20704;-73
2022/03/26 11:25:43;;;;;;;5.33;4.00;;;17.50;57.80;;;;;;5226082;28;20197;-73
2022/03/26 11:28:47;;;;;;;5.03;3.83;;;17.50;57.80;;;;;;5224867;28;20351;-70
2022/03/26 11:31:47;;;;;;;5.00;4.10;;;17.50;57.80;;;;;;5225092;28;20295;-72
2022/03/26 11:34:39;;;;;;;4.40;3.80;;;17.50;57.80;;;;;;5225664;28;20190;-70
2022/03/26 11:37:31;;;;;;;5.97;4.20;;;17.50;57.90;;;;;;5225860;28;20683;-70
2022/03/26 11:40:50;;;;;;;4.50;3.60;;;17.50;57.90;;;;;;5226142;28;20248;-71
2022/03/26 11:43:58;;;;;;;4.43;3.57;;;17.50;57.90;;;;;;5220114;28;20192;-71
2022/03/26 11:53:37;;;;;;;3.07;2.80;;;17.50;58.00;;;;;;5225503;28;20193;-70
2022/03/26 11:56:31;;;;;;;3.77;3.37;;;17.50;58.00;;;;;;5225620;28;20224;-71
2022/03/26 11:59:27;;;;;;;4.63;3.17;;;17.50;58.00;;;;;;5224843;28;20193;-72
2022/03/26 12:02:25;;;;;;;3.47;2.80;;;17.50;58.10;;;;;;5225593;28;20217;-71
2022/03/26 12:08:39;;;;;;;3.50;2.70;;;17.50;58.10;;;;;;5215187;28;20300;-70
2022/03/26 12:11:34;;;;;;;3.80;3.07;;;17.50;58.10;;;;;;5192279;28;20209;-72
2022/03/26 12:14:26;;;;;;;3.37;2.37;;;17.50;58.20;;;;;;5204069;28;20194;-73
2022/03/26 12:17:44;;;;;;;2.60;2.40;;;17.50;58.20;;;;;;5184235;28;20191;-72
2022/03/26 12:20:38;;;;;;;3.27;2.70;;;17.50;58.20;;;;;;5198074;28;20255;-73
2022/03/26 12:23:34;;;;;;;2.33;2.13;;;17.50;58.20;;;;;;5191968;28;20339;-71
2022/03/26 12:26:26;;;;;;;2.70;2.30;;;17.50;58.20;;;;;;5204075;28;20307;-72
2022/03/26 12:29:19;;;;;;;5.10;2.80;;;17.50;58.30;;;;;;5203771;28;20825;-72
2022/03/26 12:32:11;;;;;;;3.80;2.30;;;17.50;58.30;;;;;;5195867;28;20222;-72
2022/03/26 12:35:09;;;;;;;2.40;2.20;;;17.50;58.30;;;;;;5183076;28;20201;-72
2022/03/26 12:38:04;;;;;;;3.83;2.50;;;17.40;58.30;;;;;;5202514;28;20194;-72
2022/03/26 12:40:59;;;;;;;3.00;2.50;;;17.50;58.30;;;;;;5200009;28;20658;-72
2022/03/26 12:43:54;;;;;;;4.20;3.07;;;17.50;58.30;;;;;;5198409;28;20232;-72
2022/03/26 12:46:49;;;;;;;7.37;3.93;;;17.50;58.30;;;;;;5202836;28;20200;-72
2022/03/26 12:49:41;;;;;;;3.57;2.90;;;17.40;58.30;;;;;;5204982;28;20738;-72
2022/03/26 12:52:36;;;;;;;4.87;2.90;;;17.40;58.30;;;;;;5187884;28;20341;-72
2022/03/26 12:55:28;;;;;;;4.03;3.00;;;17.40;58.40;;;;;;5201708;28;20201;-72
2022/03/26 13:01:30;;;;;;;4.20;2.97;;;17.40;58.50;;;;;;5204308;28;20683;-72
2022/03/26 13:04:22;;;;;;;4.20;2.80;;;17.30;58.50;;;;;;5224685;28;20239;-72
2022/03/26 13:07:14;;;;;;;3.77;2.77;;;17.40;58.50;;;;;;5225331;28;20687;-72
2022/03/26 13:10:09;;;;;;;3.17;2.70;;;17.30;58.50;;;;;;5224321;28;20209;-72
2022/03/26 13:13:02;;;;;;;5.07;2.60;;;17.30;58.50;;;;;;5223856;28;20362;-72
2022/03/26 13:16:07;;;;;;;4.60;2.87;;;17.40;58.60;;;;;;5224238;28;20743;-72
2022/03/26 13:19:04;;;;;;;4.90;2.90;;;17.40;58.70;;;;;;5224864;28;20724;-72
2022/03/26 13:21:56;;;;;;;2.80;2.13;;;17.30;58.80;;;;;;5224003;28;20213;-71
2022/03/26 13:24:52;;;;;;;8.63;2.70;;;17.30;58.70;;;;;;5223959;28;20338;-71
2022/03/26 13:27:45;;;;;;;3.10;2.37;;;17.30;58.90;;;;;;5224758;28;20193;-70
2022/03/26 13:30:38;;;;;;;3.60;2.30;;;17.30;59.00;;;;;;5224203;28;20279;-72
2022/03/26 13:33:30;;;;;;;4.87;2.37;;;17.30;59.00;;;;;;5224241;28;20198;-72
2022/03/26 13:36:29;;;;;;;4.17;2.60;;;17.30;59.10;;;;;;5204340;28;20321;-72
2022/03/26 13:39:28;;;;;;;5.47;2.67;;;17.30;59.20;;;;;;5217363;28;20189;-72
2022/03/26 13:42:22;;;;;;;3.20;2.50;;;17.30;59.20;;;;;;5224259;28;20209;-72
2022/03/26 13:45:15;;;;;;;4.33;2.40;;;17.30;59.40;;;;;;5223887;28;20763;-72
2022/03/26 13:48:08;;;;;;;3.17;2.20;;;17.30;59.40;;;;;;5223049;28;20328;-71
2022/03/26 13:51:09;;;;;;;5.20;2.70;;;17.30;59.50;;;;;;5223515;28;20213;-72
2022/03/26 13:54:03;;;;;;;3.97;2.50;;;17.30;59.60;;;;;;5223386;28;20267;-72
2022/03/26 13:56:57;;;;;;;5.40;2.70;;;17.30;59.60;;;;;;5223426;28;20271;-72
2022/03/26 13:59:49;;;;;;;3.70;2.40;;;17.30;59.70;;;;;;5215715;28;20776;-72
2022/03/26 14:02:43;;;;;;;3.60;2.40;;;17.30;59.70;;;;;;5223772;28;20640;-72
2022/03/26 14:05:36;;;;;;;2.83;2.33;;;17.30;59.80;;;;;;5214808;28;20198;-72
2022/03/26 14:08:28;;;;;;;3.67;2.17;;;17.30;59.80;;;;;;5224552;28;20197;-72
2022/03/26 14:11:20;;;;;;;3.60;2.20;;;17.30;59.90;;;;;;5223481;28;20266;-72
2022/03/26 14:14:13;;;;;;;4.70;2.80;;;17.30;60.00;;;;;;5227131;28;20227;-72
2022/03/26 14:17:05;;;;;;;4.33;2.83;;;17.30;60.00;;;;;;5228001;28;20556;-72
2022/03/26 14:19:58;;;;;;;3.40;2.27;;;17.30;60.10;;;;;;5227891;28;20633;-72
2022/03/26 14:22:55;;;;;;;4.73;2.53;;;17.30;60.10;;;;;;5227363;28;20328;-72
2022/03/26 14:25:49;;;;;;;2.40;1.90;;;17.30;60.20;;;;;;5227150;28;20200;-71
2022/03/26 14:28:42;;;;;;;3.17;2.30;;;17.30;60.40;;;;;;5227945;28;20197;-72
2022/03/26 14:31:34;;;;;;;3.30;2.40;;;17.30;60.30;;;;;;5227274;28;20706;-72
2022/03/26 14:34:26;;;;;;;3.63;2.33;;;17.30;60.40;;;;;;5227519;28;20565;-72
2022/03/26 14:37:20;;;;;;;2.87;2.43;;;17.30;60.40;;;;;;5227852;28;20280;-72
2022/03/26 14:40:12;;;;;;;2.53;2.07;;;17.30;60.50;;;;;;5227134;28;20197;-72
2022/03/26 14:43:05;;;;;;;4.17;2.30;;;17.30;60.50;;;;;;5226482;28;20217;-72
2022/03/26 14:45:58;;;;;;;3.30;2.13;;;17.30;60.50;;;;;;5209330;28;20277;-72
2022/03/26 14:48:50;;;;;;;2.93;1.93;;;17.30;60.70;;;;;;5226137;28;20201;-72
2022/03/26 14:51:42;;;;;;;3.57;1.93;;;17.30;60.60;;;;;;5223669;28;20214;-72
2022/03/26 14:54:36;;;;;;;5.13;2.20;;;17.30;60.50;;;;;;5227391;28;20658;-72
2022/03/26 14:57:28;;;;;;;2.83;1.90;;;17.30;60.50;;;;;;5227700;28;20205;-71
2022/03/26 15:00:20;;;;;;;3.00;2.00;;;17.30;60.40;;;;;;5226318;28;20190;-73
2022/03/26 15:03:12;;;;;;;2.73;1.70;;;17.30;60.50;;;;;;5226697;28;20297;-72
2022/03/26 15:06:04;;;;;;;2.37;1.67;;;17.30;60.40;;;;;;5226863;28;20190;-72
2022/03/26 15:08:57;;;;;;;4.57;1.80;;;17.30;60.30;;;;;;5225776;28;20276;-71
2022/03/26 15:11:50;;;;;;;4.67;1.63;;;17.30;60.40;;;;;;5225921;28;20773;-71
2022/03/26 15:14:42;;;;;;;2.13;1.50;;;17.30;60.30;;;;;;5227103;28;20731;-73
2022/03/26 15:17:34;;;;;;;3.17;1.93;;;17.30;60.30;;;;;;5226992;28;20280;-71